createdAt,value
2017-11-13T09:43:25.710Z,85.52
2017-11-13T09:43:39.289Z,85.75
2017-11-13T09:43:52.279Z,86.14
2017-11-13T09:44:04.672Z,86.91
2017-11-13T09:44:18.091Z,85.85
2017-11-13T09:44:31.039Z,86.14
2017-11-13T09:44:44.569Z,86.58
2017-11-13T09:44:58.084Z,86.96
2017-11-13T09:45:11.020Z,87.16
2017-11-13T09:45:23.950Z,86.96
2017-11-13T09:45:37.513Z,87.26
2017-11-13T09:45:51.006Z,86.96
2017-11-13T09:46:04.518Z,86.87
2017-11-13T09:46:17.394Z,86.96
2017-11-13T09:46:30.938Z,86.48
2017-11-13T09:46:44.416Z,86.68
2017-11-13T09:46:57.853Z,86.33
2017-11-13T09:47:11.302Z,86.14
2017-11-13T09:47:24.185Z,85.94
2017-11-13T09:47:37.640Z,86.14
2017-11-13T09:47:51.159Z,86.24
2017-11-13T09:48:04.613Z,85.75
2017-11-13T09:48:17.559Z,85.6
2017-11-13T09:48:30.467Z,85.5
2017-11-13T09:48:43.923Z,85.22
2017-11-13T09:48:56.339Z,84.64
2017-11-13T09:49:09.791Z,84.16
2017-11-13T09:49:23.201Z,83.77
2017-11-13T09:49:36.684Z,83.58
2017-11-13T09:49:49.673Z,83.67
2017-11-13T09:50:03.160Z,83.29
2017-11-13T09:50:16.125Z,83.48
2017-11-13T09:50:29.036Z,82.9
2017-11-13T09:50:41.404Z,83
2017-11-13T09:50:54.904Z,82.81
2017-11-13T09:51:06.208Z,82.23
2017-11-13T09:51:18.541Z,81.88
2017-11-13T09:51:31.500Z,82.07
2017-11-13T09:51:45.072Z,81.98
2017-11-13T09:51:58.553Z,81.59
2017-11-13T09:52:12.040Z,81.49
2017-11-13T09:52:25.535Z,81.11
2017-11-13T09:52:38.987Z,81.24
2017-11-13T09:52:52.438Z,81.15
2017-11-13T09:53:05.897Z,81.3
2017-11-13T09:53:18.818Z,81.49
2017-11-13T09:53:31.779Z,81.01
2017-11-13T09:53:45.230Z,81.49
2017-11-13T09:53:57.652Z,81.78
2017-11-13T09:54:11.150Z,82.26
2017-11-13T09:54:24.069Z,81.78
2017-11-13T09:54:37.567Z,82.56
2017-11-13T09:54:50.512Z,82.46
2017-11-13T09:55:02.877Z,82.9
2017-11-13T09:55:16.329Z,82.94
2017-11-13T09:55:29.760Z,82.51
2017-11-13T09:55:42.203Z,82.17
2017-11-13T09:55:55.189Z,82.26
2017-11-13T09:56:08.071Z,81.65
2017-11-13T09:56:21.525Z,81.74
2017-11-13T09:56:34.438Z,81.84
2017-11-13T09:56:47.920Z,81.84
2017-11-13T09:57:00.831Z,82.32
2017-11-13T09:57:14.323Z,82.23
2017-11-13T09:57:27.801Z,82.03
2017-11-13T09:57:41.312Z,82.03
2017-11-13T09:57:55.283Z,82.13
2017-11-13T09:58:08.777Z,82.32
2017-11-13T09:58:21.761Z,81.84
2017-11-13T09:58:34.740Z,81.68
2017-11-13T09:58:47.713Z,81.68
2017-11-13T09:59:01.185Z,81.3
2017-11-13T09:59:14.676Z,81.3
2017-11-13T09:59:27.623Z,80.95
2017-11-13T09:59:40.525Z,80.76
2017-11-13T09:59:53.499Z,80.76
2017-11-13T10:00:07.045Z,80.12
2017-11-13T10:00:20.047Z,80.03
2017-11-13T10:00:33.494Z,79.06
2017-11-13T10:00:46.382Z,79.1
2017-11-13T10:00:59.902Z,78.33
2017-11-13T10:01:12.896Z,78.08
2017-11-13T10:01:26.378Z,77.3
2017-11-13T10:01:39.262Z,77.2
2017-11-13T10:01:52.818Z,76.82
2017-11-13T10:02:06.297Z,76.28
2017-11-13T10:02:19.406Z,76.24
2017-11-13T10:02:32.904Z,75.95
2017-11-13T10:02:46.301Z,75.85
2017-11-13T10:02:59.747Z,75.95
2017-11-13T10:03:12.665Z,75.75
2017-11-13T10:03:25.501Z,75.75
2017-11-13T10:03:38.986Z,75.65
2017-11-13T10:03:51.942Z,75.37
2017-11-13T10:04:05.361Z,76.04
2017-11-13T10:04:18.269Z,76.2
2017-11-13T10:04:31.743Z,76.49
2017-11-13T10:04:45.202Z,76.53
2017-11-13T10:04:58.721Z,76.78
2017-11-13T10:05:12.293Z,76.62
2017-11-13T10:05:25.232Z,76.43
2017-11-13T10:05:37.633Z,76.33
2017-11-13T10:05:51.043Z,76.43
2017-11-13T10:06:04.489Z,75.85
2017-11-13T10:06:17.985Z,75.85
2017-11-13T10:06:30.900Z,75.85
2017-11-13T10:06:43.816Z,75.85
2017-11-13T10:06:57.288Z,75.85
2017-11-13T10:07:10.724Z,75.85
2017-11-13T10:07:24.192Z,75.6
2017-11-13T10:07:37.190Z,75.02
2017-11-13T10:07:49.069Z,74.96
2017-11-13T10:08:02.530Z,74.66
2017-11-13T10:08:15.439Z,74.76
2017-11-13T10:08:28.883Z,74.18
2017-11-13T10:08:42.344Z,73.99
2017-11-13T10:08:55.285Z,74.08
2017-11-13T10:09:08.637Z,74.18
2017-11-13T10:09:21.579Z,74.08
2017-11-13T10:09:35.067Z,73.79
2017-11-13T10:09:47.994Z,73.5
2017-11-13T10:10:01.385Z,73.89
2017-11-13T10:10:14.929Z,73.99
2017-11-13T10:10:27.871Z,74.18
2017-11-13T10:10:41.330Z,74.08
2017-11-13T10:10:54.867Z,74.38
2017-11-13T10:11:06.703Z,74.53
2017-11-13T10:11:19.657Z,74.24
2017-11-13T10:11:32.617Z,74.53
2017-11-13T10:11:45.021Z,74.43
2017-11-13T10:11:57.929Z,74.73
2017-11-13T10:12:11.383Z,75.11
2017-11-13T10:12:24.296Z,74.98
2017-11-13T10:12:37.290Z,74.98
2017-11-13T10:12:50.780Z,74.79
2017-11-13T10:13:04.338Z,74.98
2017-11-13T10:13:17.302Z,75.07
2017-11-13T10:13:30.861Z,75.07
2017-11-13T10:13:44.365Z,75.11
2017-11-13T10:13:57.755Z,75.02
2017-11-13T10:14:10.705Z,75.85
2017-11-13T10:14:22.530Z,75.65
2017-11-13T10:14:36.012Z,75.56
2017-11-13T10:14:48.383Z,75.85
2017-11-13T10:15:00.704Z,76.24
2017-11-13T10:15:13.135Z,75.56
2017-11-13T10:15:26.079Z,75.56
2017-11-13T10:15:38.475Z,75.65
2017-11-13T10:15:51.918Z,75.65
2017-11-13T10:16:04.833Z,75.56
2017-11-13T10:16:18.341Z,75.4
2017-11-13T10:16:31.836Z,75.11
2017-11-13T10:16:45.300Z,75.02
2017-11-13T10:16:58.279Z,74.92
2017-11-13T10:17:11.759Z,75.31
2017-11-13T10:17:24.669Z,74.43
2017-11-13T10:17:38.152Z,74.34
2017-11-13T10:17:51.117Z,74.15
2017-11-13T10:18:03.594Z,74.57
2017-11-13T10:18:16.455Z,73.99
2017-11-13T10:18:30.016Z,74.28
2017-11-13T10:18:42.933Z,74.08
2017-11-13T10:18:56.080Z,73.41
2017-11-13T10:19:09.037Z,73.21
2017-11-13T10:19:22.520Z,73.02
2017-11-13T10:19:35.435Z,72.63
2017-11-13T10:19:48.331Z,72.63
2017-11-13T10:20:01.814Z,73.02
2017-11-13T10:20:14.709Z,73.27
2017-11-13T10:20:27.579Z,73.37
2017-11-13T10:20:41.034Z,73.75
2017-11-13T10:20:53.959Z,73.95
2017-11-13T10:21:06.892Z,73.95
2017-11-13T10:21:20.349Z,74.24
2017-11-13T10:21:33.329Z,73.95
2017-11-13T10:21:46.192Z,73.89
2017-11-13T10:21:59.106Z,73.6
2017-11-13T10:22:12.065Z,73.31
2017-11-13T10:22:25.037Z,73.44
2017-11-13T10:22:37.954Z,73.15
2017-11-13T10:22:51.403Z,73.44
2017-11-13T10:23:04.327Z,72.57
2017-11-13T10:23:17.280Z,72.77
2017-11-13T10:23:30.780Z,72.47
2017-11-13T10:23:44.279Z,72.18
2017-11-13T10:23:57.188Z,72.28
2017-11-13T10:24:10.116Z,72.02
2017-11-13T10:24:23.629Z,72.02
2017-11-13T10:24:37.050Z,72.12
2017-11-13T10:24:50.485Z,71.64
2017-11-13T10:25:03.953Z,71.83
2017-11-13T10:25:16.909Z,71.58
2017-11-13T10:25:30.345Z,71.67
2017-11-13T10:25:43.248Z,71.28
2017-11-13T10:25:56.709Z,71.54
2017-11-13T10:26:09.070Z,71.58
2017-11-13T10:26:22.487Z,71.48
2017-11-13T10:26:35.999Z,70.99
2017-11-13T10:26:48.930Z,70.8
2017-11-13T10:27:02.447Z,71.19
2017-11-13T10:27:15.981Z,70.8
2017-11-13T10:27:29.474Z,70.41
2017-11-13T10:27:42.972Z,70.41
2017-11-13T10:27:56.413Z,70.25
2017-11-13T10:28:09.545Z,70.35
2017-11-13T10:28:22.526Z,70.15
2017-11-13T10:28:36.032Z,70.54
2017-11-13T10:28:48.923Z,70.15
2017-11-13T10:29:01.849Z,69.8
2017-11-13T10:29:15.315Z,69.7
2017-11-13T10:29:28.764Z,69.9
2017-11-13T10:29:41.692Z,69.7
2017-11-13T10:29:54.602Z,69.22
2017-11-13T10:30:08.012Z,68.93
2017-11-13T10:30:20.930Z,69.8
2017-11-13T10:30:33.877Z,69.8
2017-11-13T10:30:47.367Z,69.54
2017-11-13T10:31:00.362Z,69.35
2017-11-13T10:31:13.932Z,68.83
2017-11-13T10:31:27.395Z,68.67
2017-11-13T10:31:40.836Z,68.63
2017-11-13T10:31:53.808Z,68.83
2017-11-13T10:32:07.295Z,68.93
2017-11-13T10:32:20.203Z,69.38
2017-11-13T10:32:33.694Z,69.86
2017-11-13T10:32:47.158Z,69.67
2017-11-13T10:33:00.599Z,69.57
2017-11-13T10:33:13.531Z,69.96
2017-11-13T10:33:26.962Z,69.76
2017-11-13T10:33:40.417Z,69.76
2017-11-13T10:33:53.870Z,69.76
2017-11-13T10:34:06.791Z,69.96
2017-11-13T10:34:19.701Z,69.96
2017-11-13T10:34:33.181Z,69.76
2017-11-13T10:34:46.627Z,69.67
2017-11-13T10:34:59.522Z,69.48
2017-11-13T10:35:13.031Z,69.76
2017-11-13T10:35:26.492Z,69.96
2017-11-13T10:35:39.956Z,69.76
2017-11-13T10:35:52.864Z,69.48
2017-11-13T10:36:06.333Z,69.57
2017-11-13T10:36:19.236Z,69.57
2017-11-13T10:36:32.199Z,69.67
2017-11-13T10:36:45.148Z,69.67
2017-11-13T10:36:58.653Z,69.48
2017-11-13T10:37:12.198Z,69.57
2017-11-13T10:37:25.144Z,69.32
2017-11-13T10:37:38.597Z,69.7
2017-11-13T10:37:51.541Z,68.93
2017-11-13T10:38:05.017Z,69.02
2017-11-13T10:38:18.479Z,68.96
2017-11-13T10:38:31.909Z,68.18
2017-11-13T10:38:45.379Z,68.12
2017-11-13T10:38:58.268Z,68.12
2017-11-13T10:39:11.794Z,67.73
2017-11-13T10:39:25.206Z,67.54
2017-11-13T10:39:38.173Z,67.34
2017-11-13T10:39:51.673Z,67.28
2017-11-13T10:40:04.638Z,66.99
2017-11-13T10:40:18.078Z,66.93
2017-11-13T10:40:31.013Z,66.53
2017-11-13T10:40:44.500Z,66.14
2017-11-13T10:40:57.971Z,65.95
2017-11-13T10:41:10.904Z,65.4
2017-11-13T10:41:23.807Z,65.59
2017-11-13T10:41:37.327Z,65.3
2017-11-13T10:41:50.824Z,64.72
2017-11-13T10:42:03.244Z,64.23
2017-11-13T10:42:16.163Z,64.42
2017-11-13T10:42:29.669Z,63.94
2017-11-13T10:42:43.113Z,63.94
2017-11-13T10:42:56.575Z,64.13
2017-11-13T10:43:10.318Z,64.04
2017-11-13T10:43:23.750Z,64.32
2017-11-13T10:43:36.154Z,64.1
2017-11-13T10:43:49.091Z,64.23
2017-11-13T10:44:01.479Z,64.52
2017-11-13T10:44:14.911Z,64.52
2017-11-13T10:44:27.836Z,64.52
2017-11-13T10:44:39.612Z,64.72
2017-11-13T10:44:53.104Z,64.62
2017-11-13T10:45:06.667Z,64.52
2017-11-13T10:45:20.184Z,64.13
2017-11-13T10:45:33.705Z,64.42
2017-11-13T10:45:47.149Z,63.84
2017-11-13T10:46:00.677Z,63.55
2017-11-13T10:46:14.153Z,63.94
2017-11-13T10:46:27.082Z,63.84
2017-11-13T10:46:39.450Z,63.65
2017-11-13T10:46:52.398Z,63.94
2017-11-13T10:47:05.926Z,63.84
2017-11-13T10:47:18.815Z,63.55
2017-11-13T10:47:32.235Z,63.84
2017-11-13T10:47:45.695Z,63.78
2017-11-13T10:47:58.650Z,63.87
2017-11-13T10:48:12.199Z,63.97
2017-11-13T10:48:25.145Z,64.17
2017-11-13T10:48:38.594Z,64.1
2017-11-13T10:48:52.019Z,63.81
2017-11-13T10:49:05.429Z,63.19
2017-11-13T10:49:18.917Z,62.8
2017-11-13T10:49:32.291Z,62.6
2017-11-13T10:49:45.267Z,62.6
2017-11-13T10:49:58.161Z,62.9
2017-11-13T10:50:11.043Z,63.19
2017-11-13T10:50:24.049Z,63.19
2017-11-13T10:50:37.511Z,62.9
2017-11-13T10:50:50.443Z,63.19
2017-11-13T10:51:03.931Z,62.9
2017-11-13T10:51:17.393Z,63.19
2017-11-13T10:51:30.834Z,62.9
2017-11-13T10:51:44.363Z,63.29
2017-11-13T10:51:56.741Z,63.39
2017-11-13T10:52:09.118Z,63.09
2017-11-13T10:52:22.589Z,62.8
2017-11-13T10:52:36.270Z,63.09
2017-11-13T10:52:49.697Z,63.19
2017-11-13T10:53:03.149Z,62.9
2017-11-13T10:53:16.603Z,62.8
2017-11-13T10:53:29.491Z,62.8
2017-11-13T10:53:41.896Z,63.19
2017-11-13T10:53:55.379Z,63.06
2017-11-13T10:54:08.867Z,63.78
2017-11-13T10:54:22.331Z,63.19
2017-11-13T10:54:35.823Z,62.9
2017-11-13T10:54:48.233Z,62.99
2017-11-13T10:55:01.696Z,63.29
2017-11-13T10:55:15.104Z,63.42
2017-11-13T10:55:28.771Z,63.12
2017-11-13T10:55:41.666Z,63.22
2017-11-13T10:55:55.108Z,63.32
2017-11-13T10:56:07.519Z,62.93
2017-11-13T10:56:19.922Z,62.44
2017-11-13T10:56:33.394Z,62.35
2017-11-13T10:56:46.885Z,62.35
2017-11-13T10:57:00.358Z,62.38
2017-11-13T10:57:13.865Z,61.99
2017-11-13T10:57:26.789Z,61.99
2017-11-13T10:57:40.495Z,62.28
2017-11-13T10:57:53.984Z,62.47
2017-11-13T10:58:07.443Z,62.38
2017-11-13T10:58:20.533Z,61.99
2017-11-13T10:58:34.018Z,61.79
2017-11-13T10:58:46.454Z,61.89
2017-11-13T10:59:00.005Z,61.69
2017-11-13T10:59:13.439Z,61.89
2017-11-13T10:59:26.356Z,61.79
2017-11-13T10:59:39.312Z,61.79
2017-11-13T10:59:52.755Z,61.89
2017-11-13T11:00:06.212Z,61.89
2017-11-13T11:00:19.749Z,61.79
2017-11-13T11:00:33.183Z,61.89
2017-11-13T11:00:46.100Z,61.89
2017-11-13T11:00:59.579Z,61.96
2017-11-13T11:01:12.512Z,61.96
2017-11-13T11:01:26.036Z,62.05
2017-11-13T11:01:39.464Z,61.73
2017-11-13T11:01:52.380Z,61.93
2017-11-13T11:02:05.829Z,62.02
2017-11-13T11:02:19.274Z,62.51
2017-11-13T11:02:33.332Z,62.22
2017-11-13T11:02:46.883Z,62.6
2017-11-13T11:03:00.403Z,62.22
2017-11-13T11:03:12.735Z,62.7
2017-11-13T11:03:25.704Z,62.7
2017-11-13T11:03:39.164Z,62.51
2017-11-13T11:03:52.647Z,62.6
2017-11-13T11:04:05.545Z,62.41
2017-11-13T11:04:18.985Z,62.7
2017-11-13T11:04:32.424Z,62.6
2017-11-13T11:04:44.850Z,62.7
2017-11-13T11:04:58.349Z,62.51
2017-11-13T11:05:11.274Z,62.35
2017-11-13T11:05:24.726Z,62.6
2017-11-13T11:05:37.716Z,62.35
2017-11-13T11:05:51.225Z,62.51
2017-11-13T11:06:04.164Z,62.51
2017-11-13T11:06:17.599Z,62.12
2017-11-13T11:06:31.081Z,62.6
2017-11-13T11:06:44.530Z,62.9
2017-11-13T11:06:59.356Z,62.9
2017-11-13T11:07:12.795Z,62.87
2017-11-13T11:07:26.239Z,62.67
2017-11-13T11:07:39.696Z,62.77
2017-11-13T11:07:52.054Z,62.87
2017-11-13T11:08:04.399Z,63.03
2017-11-13T11:08:17.283Z,63.32
2017-11-13T11:08:30.729Z,63.29
2017-11-13T11:08:44.201Z,63.59
2017-11-13T11:08:57.709Z,64.26
2017-11-13T11:09:10.672Z,64.33
2017-11-13T11:09:24.078Z,64.72
2017-11-13T11:09:37.572Z,64.62
2017-11-13T11:09:51.007Z,64.53
2017-11-13T11:10:04.477Z,64.72
2017-11-13T11:10:17.392Z,65.11
2017-11-13T11:10:30.911Z,65.3
2017-11-13T11:10:43.828Z,65.08
2017-11-13T11:10:56.707Z,65.37
2017-11-13T11:11:10.185Z,65.85
2017-11-13T11:11:23.609Z,65.75
2017-11-13T11:11:36.569Z,66.11
2017-11-13T11:11:50.118Z,66.14
2017-11-13T11:12:03.603Z,66.11
2017-11-13T11:12:15.975Z,66.34
2017-11-13T11:12:29.424Z,66.14
2017-11-13T11:12:41.806Z,66.63
2017-11-13T11:12:55.278Z,66.44
2017-11-13T11:13:08.273Z,65.75
2017-11-13T11:13:21.273Z,66.24
2017-11-13T11:13:33.673Z,65.69
2017-11-13T11:13:47.153Z,65.89
2017-11-13T11:14:00.654Z,65.5
2017-11-13T11:14:14.089Z,65.98
2017-11-13T11:14:27.590Z,65.59
2017-11-13T11:14:41.045Z,65.79
2017-11-13T11:14:54.506Z,65.59
2017-11-13T11:15:06.873Z,65.3
2017-11-13T11:15:20.353Z,65.4
2017-11-13T11:15:32.792Z,65.33
2017-11-13T11:15:45.673Z,65.04
2017-11-13T11:15:59.097Z,64.85
2017-11-13T11:16:12.020Z,64.72
2017-11-13T11:16:25.509Z,64.26
2017-11-13T11:16:39.012Z,64.56
2017-11-13T11:16:51.977Z,64.81
2017-11-13T11:17:04.417Z,64.33
2017-11-13T11:17:17.354Z,64.46
2017-11-13T11:17:30.296Z,64.75
2017-11-13T11:17:43.701Z,64.85
2017-11-13T11:17:57.206Z,64.56
2017-11-13T11:18:10.619Z,64.36
2017-11-13T11:18:24.181Z,64.36
2017-11-13T11:18:37.646Z,64.26
2017-11-13T11:18:51.082Z,64.26
2017-11-13T11:19:04.135Z,63.78
2017-11-13T11:19:17.053Z,63.87
2017-11-13T11:19:30.549Z,63.78
2017-11-13T11:19:43.468Z,63.71
2017-11-13T11:19:56.927Z,63.71
2017-11-13T11:20:10.369Z,63.71
2017-11-13T11:20:23.872Z,63.81
2017-11-13T11:20:36.275Z,63.71
2017-11-13T11:20:49.721Z,63.81
2017-11-13T11:21:02.701Z,63.81
2017-11-13T11:21:15.601Z,63.42
2017-11-13T11:21:27.947Z,63.52
2017-11-13T11:21:41.456Z,63.81
2017-11-13T11:21:54.900Z,63.62
2017-11-13T11:22:08.366Z,63.62
2017-11-13T11:22:21.301Z,63.81
2017-11-13T11:22:34.770Z,63.71
2017-11-13T11:22:48.203Z,63.62
2017-11-13T11:23:01.732Z,63.71
2017-11-13T11:23:15.385Z,63.81
2017-11-13T11:23:28.823Z,64
2017-11-13T11:23:41.740Z,63.42
2017-11-13T11:23:54.639Z,63.62
2017-11-13T11:24:08.077Z,63.65
2017-11-13T11:24:20.968Z,63.26
2017-11-13T11:24:33.868Z,62.87
2017-11-13T11:24:47.357Z,62.96
2017-11-13T11:25:00.374Z,62.93
2017-11-13T11:25:13.251Z,62.84
2017-11-13T11:25:26.185Z,62.84
2017-11-13T11:25:39.129Z,63.13
2017-11-13T11:25:52.589Z,63.62
2017-11-13T11:26:06.042Z,63.71
2017-11-13T11:26:19.437Z,63.81
2017-11-13T11:26:31.796Z,63.9
2017-11-13T11:26:44.740Z,63.81
2017-11-13T11:26:57.682Z,63.81
2017-11-13T11:27:10.572Z,63.71
2017-11-13T11:27:24.062Z,63.81
2017-11-13T11:27:37.547Z,63.81
2017-11-13T11:27:51.032Z,63.81
2017-11-13T11:28:04.469Z,63.71
2017-11-13T11:28:18.002Z,63.84
2017-11-13T11:28:31.123Z,63.84
2017-11-13T11:28:42.933Z,63.26
2017-11-13T11:28:55.854Z,63.35
2017-11-13T11:29:09.312Z,63.06
2017-11-13T11:29:22.764Z,63.29
2017-11-13T11:29:36.205Z,62.99
2017-11-13T11:29:49.668Z,62.8
2017-11-13T11:30:02.590Z,62.48
2017-11-13T11:30:15.476Z,62.57
2017-11-13T11:30:28.427Z,62.77
2017-11-13T11:30:41.920Z,62.02
2017-11-13T11:30:55.441Z,62.09
2017-11-13T11:31:08.343Z,62.02
2017-11-13T11:31:21.796Z,62.29
2017-11-13T11:31:34.693Z,62.38
2017-11-13T11:31:47.579Z,62.38
2017-11-13T11:32:01.054Z,62.57
2017-11-13T11:32:13.993Z,62.09
2017-11-13T11:32:27.462Z,61.99
2017-11-13T11:32:40.957Z,62.57
2017-11-13T11:32:54.403Z,62.38
2017-11-13T11:33:07.926Z,62.19
2017-11-13T11:33:21.342Z,62.16
2017-11-13T11:33:34.221Z,62.26
2017-11-13T11:33:47.719Z,62.26
2017-11-13T11:34:01.223Z,62.26
2017-11-13T11:34:14.656Z,62.06
2017-11-13T11:34:28.132Z,62.45
2017-11-13T11:34:41.604Z,62.45
2017-11-13T11:34:55.116Z,62.16
2017-11-13T11:35:08.052Z,61.9
2017-11-13T11:35:21.569Z,62.45
2017-11-13T11:35:34.482Z,62.06
2017-11-13T11:35:47.912Z,62.06
2017-11-13T11:36:01.376Z,62.26
2017-11-13T11:36:13.792Z,62.16
2017-11-13T11:36:27.217Z,62.54
2017-11-13T11:36:40.670Z,62.54
2017-11-13T11:36:54.174Z,62.45
2017-11-13T11:37:06.525Z,62.06
2017-11-13T11:37:19.405Z,62.45
2017-11-13T11:37:32.905Z,62.54
2017-11-13T11:37:46.361Z,62.64
2017-11-13T11:37:59.801Z,62.16
2017-11-13T11:38:12.699Z,62.16
2017-11-13T11:38:26.176Z,62.16
2017-11-13T11:38:39.622Z,62.54
2017-11-13T11:38:52.570Z,62.54
2017-11-13T11:39:06.023Z,62.64
2017-11-13T11:39:18.957Z,62.26
2017-11-13T11:39:32.428Z,63.2
2017-11-13T11:39:45.329Z,63.1
2017-11-13T11:39:58.772Z,63.68
2017-11-13T11:40:11.155Z,63.78
2017-11-13T11:40:24.607Z,64.36
2017-11-13T11:40:38.108Z,64.65
2017-11-13T11:40:50.467Z,64.43
2017-11-13T11:41:03.972Z,64.43
2017-11-13T11:41:17.407Z,64.62
2017-11-13T11:41:30.908Z,64.36
2017-11-13T11:41:44.403Z,64.26
2017-11-13T11:41:57.290Z,64.26
2017-11-13T11:42:10.236Z,63.78
2017-11-13T11:42:23.122Z,64.26
2017-11-13T11:42:36.593Z,64.26
2017-11-13T11:42:49.473Z,63.78
2017-11-13T11:43:02.960Z,64.26
2017-11-13T11:43:15.851Z,64.07
2017-11-13T11:43:29.390Z,64.46
2017-11-13T11:43:42.372Z,63.9
2017-11-13T11:43:55.889Z,63.78
2017-11-13T11:44:09.303Z,64.26
2017-11-13T11:44:22.279Z,64.07
2017-11-13T11:44:35.780Z,64.36
2017-11-13T11:44:49.295Z,64.46
2017-11-13T11:45:02.753Z,65.01
2017-11-13T11:45:16.225Z,65.2
2017-11-13T11:45:28.646Z,65.2
2017-11-13T11:45:41.085Z,65.3
2017-11-13T11:45:53.477Z,65.08
2017-11-13T11:46:05.878Z,65.27
2017-11-13T11:46:18.777Z,65.17
2017-11-13T11:46:32.191Z,65.47
2017-11-13T11:46:45.679Z,65.72
2017-11-13T11:46:59.166Z,66.69
2017-11-13T11:47:12.627Z,66.89
2017-11-13T11:47:25.569Z,67.18
2017-11-13T11:47:39.079Z,67.63
2017-11-13T11:47:52.575Z,67.83
2017-11-13T11:48:05.506Z,67.66
2017-11-13T11:48:18.496Z,66.95
2017-11-13T11:48:31.996Z,66.99
2017-11-13T11:48:45.478Z,66.4
2017-11-13T11:48:58.946Z,66.79
2017-11-13T11:49:12.404Z,67.37
2017-11-13T11:49:25.861Z,66.99
2017-11-13T11:49:38.163Z,67.37
2017-11-13T11:49:51.565Z,66.79
2017-11-13T11:50:05.032Z,66.79
2017-11-13T11:50:18.506Z,66.53
2017-11-13T11:50:31.431Z,66.92
2017-11-13T11:50:44.927Z,67.02
2017-11-13T11:50:57.323Z,66.44
2017-11-13T11:51:10.269Z,66.53
2017-11-13T11:51:23.214Z,65.85
2017-11-13T11:51:36.160Z,65.85
2017-11-13T11:51:49.087Z,65.85
2017-11-13T11:52:02.571Z,66.34
2017-11-13T11:52:16.009Z,66.82
2017-11-13T11:52:29.546Z,66.72
2017-11-13T11:52:43.053Z,66.72
2017-11-13T11:52:55.466Z,65.95
2017-11-13T11:53:08.419Z,66.17
2017-11-13T11:53:21.889Z,66.27
2017-11-13T11:53:35.308Z,66.17
2017-11-13T11:53:48.743Z,66.27
2017-11-13T11:54:01.716Z,65.92
2017-11-13T11:54:15.251Z,65.33
2017-11-13T11:54:28.695Z,64.75
2017-11-13T11:54:42.182Z,64.46
2017-11-13T11:54:55.616Z,64.26
2017-11-13T11:55:08.545Z,63.68
2017-11-13T11:55:22.017Z,63.68
2017-11-13T11:55:34.336Z,63.71
2017-11-13T11:55:47.772Z,63.52
2017-11-13T11:56:00.731Z,63.52
2017-11-13T11:56:13.144Z,63.75
2017-11-13T11:56:26.629Z,63.06
2017-11-13T11:56:40.096Z,63.06
2017-11-13T11:56:53.592Z,62.96
2017-11-13T11:57:06.508Z,63.06
2017-11-13T11:57:18.919Z,62.87
2017-11-13T11:57:31.881Z,62.77
2017-11-13T11:57:45.364Z,62.57
2017-11-13T11:57:58.282Z,62.38
2017-11-13T11:58:10.611Z,62.77
2017-11-13T11:58:23.561Z,62.96
2017-11-13T11:58:37.436Z,62.77
2017-11-13T11:58:50.927Z,63.16
2017-11-13T11:59:03.816Z,63.06
2017-11-13T11:59:16.708Z,63.06
2017-11-13T11:59:30.229Z,62.77
2017-11-13T11:59:43.613Z,62.35
2017-11-13T11:59:57.073Z,62.57
2017-11-13T12:00:10.002Z,62.54
2017-11-13T12:00:22.897Z,62.26
2017-11-13T12:00:35.813Z,62.16
2017-11-13T12:00:49.253Z,62.45
2017-11-13T12:01:02.722Z,62.35
2017-11-13T12:01:15.685Z,62.35
2017-11-13T12:01:29.178Z,62.06
2017-11-13T12:01:42.663Z,62.35
2017-11-13T12:01:54.497Z,62.35
2017-11-13T12:02:07.948Z,61.96
2017-11-13T12:02:20.822Z,62.35
2017-11-13T12:02:34.300Z,62.77
2017-11-13T12:02:47.827Z,62.57
2017-11-13T12:03:00.748Z,62.87
2017-11-13T12:03:14.247Z,62.48
2017-11-13T12:03:27.673Z,62.19
2017-11-13T12:03:41.127Z,61.6
2017-11-13T12:03:54.053Z,61.9
2017-11-13T12:04:06.973Z,61.21
2017-11-13T12:04:20.461Z,61.63
2017-11-13T12:04:33.942Z,61.83
2017-11-13T12:04:47.449Z,61.51
2017-11-13T12:05:00.347Z,61.93
2017-11-13T12:05:13.847Z,61.7
2017-11-13T12:05:26.721Z,61.51
2017-11-13T12:05:40.198Z,62.22
2017-11-13T12:05:53.665Z,61.93
2017-11-13T12:06:07.718Z,62.02
2017-11-13T12:06:20.646Z,62.09
2017-11-13T12:06:34.104Z,62.38
2017-11-13T12:06:47.589Z,62.09
2017-11-13T12:06:59.964Z,62.67
2017-11-13T12:07:13.446Z,62.57
2017-11-13T12:07:26.354Z,62.57
2017-11-13T12:07:39.838Z,62.84
2017-11-13T12:07:52.209Z,62.26
2017-11-13T12:08:05.105Z,62.45
2017-11-13T12:08:18.585Z,62.32
2017-11-13T12:08:31.533Z,62.51
2017-11-13T12:08:44.465Z,62.13
2017-11-13T12:08:57.387Z,62.32
2017-11-13T12:09:10.832Z,62.19
2017-11-13T12:09:24.297Z,62.77
2017-11-13T12:09:37.203Z,62.97
2017-11-13T12:09:50.195Z,63.26
2017-11-13T12:10:03.661Z,63.65
2017-11-13T12:10:16.025Z,63.55
2017-11-13T12:10:29.602Z,64.23
2017-11-13T12:10:43.082Z,64.04
2017-11-13T12:10:56.305Z,64.33
2017-11-13T12:11:10.217Z,63.84
2017-11-13T12:11:23.654Z,63.94
2017-11-13T12:11:37.545Z,64.23
2017-11-13T12:11:51.035Z,64.23
2017-11-13T12:12:04.554Z,63.84
2017-11-13T12:12:17.525Z,63.65
2017-11-13T12:12:31.291Z,63.71
2017-11-13T12:12:44.834Z,63.75
2017-11-13T12:12:58.351Z,63.45
2017-11-13T12:13:11.280Z,63.65
2017-11-13T12:13:24.732Z,63.55
2017-11-13T12:13:37.656Z,63.36
2017-11-13T12:13:50.698Z,63.36
2017-11-13T12:14:04.222Z,63.17
2017-11-13T12:14:17.165Z,63.26
2017-11-13T12:14:30.591Z,63.07
2017-11-13T12:14:43.508Z,62.87
2017-11-13T12:14:57.043Z,63.07
2017-11-13T12:15:10.004Z,63.36
2017-11-13T12:15:23.482Z,63.65
2017-11-13T12:15:37.006Z,63.55
2017-11-13T12:15:49.906Z,62.87
2017-11-13T12:16:02.814Z,62.68
2017-11-13T12:16:16.264Z,63.07
2017-11-13T12:16:29.146Z,63.45
2017-11-13T12:16:42.644Z,64.23
2017-11-13T12:16:56.144Z,64.62
2017-11-13T12:17:09.583Z,64.43
2017-11-13T12:17:21.945Z,64.2
2017-11-13T12:17:35.467Z,64.4
2017-11-13T12:17:48.434Z,64.49
2017-11-13T12:18:01.930Z,64.3
2017-11-13T12:18:15.491Z,65.17
2017-11-13T12:18:28.971Z,65.27
2017-11-13T12:18:42.526Z,65.17
2017-11-13T12:18:56.105Z,65.08
2017-11-13T12:19:09.583Z,65.08
2017-11-13T12:19:23.130Z,65.27
2017-11-13T12:19:36.040Z,65.08
2017-11-13T12:19:48.925Z,65.17
2017-11-13T12:20:02.376Z,65.27
2017-11-13T12:20:15.798Z,65.17
2017-11-13T12:20:29.302Z,65.17
2017-11-13T12:20:42.756Z,65.17
2017-11-13T12:20:56.190Z,65.37
2017-11-13T12:21:09.661Z,65.37
2017-11-13T12:21:22.086Z,65.5
2017-11-13T12:21:35.009Z,65.5
2017-11-13T12:21:48.482Z,65.11
2017-11-13T12:22:01.947Z,65.2
2017-11-13T12:22:14.951Z,65.11
2017-11-13T12:22:27.360Z,65.3
2017-11-13T12:22:40.255Z,65.2
2017-11-13T12:22:52.633Z,65.4
2017-11-13T12:23:06.054Z,65.3
2017-11-13T12:23:19.527Z,65.89
2017-11-13T12:23:32.468Z,66.27
2017-11-13T12:23:45.904Z,66.08
2017-11-13T12:23:59.388Z,66.17
2017-11-13T12:24:12.847Z,65.89
2017-11-13T12:24:25.727Z,65.89
2017-11-13T12:24:38.112Z,66.17
2017-11-13T12:24:51.554Z,65.79
2017-11-13T12:25:04.977Z,65.98
2017-11-13T12:25:17.931Z,65.98
2017-11-13T12:25:31.389Z,65.69
2017-11-13T12:25:44.816Z,65.4
2017-11-13T12:25:58.289Z,65.01
2017-11-13T12:26:11.214Z,65.5
2017-11-13T12:26:24.091Z,65.4
2017-11-13T12:26:37.619Z,65.5
2017-11-13T12:26:50.510Z,65.89
2017-11-13T12:27:03.454Z,65.98
2017-11-13T12:27:16.925Z,66.08
2017-11-13T12:27:30.411Z,66.27
2017-11-13T12:27:44.002Z,65.5
2017-11-13T12:27:57.483Z,65.11
2017-11-13T12:28:10.916Z,65.01
2017-11-13T12:28:24.358Z,65.01
2017-11-13T12:28:37.268Z,64.81
2017-11-13T12:28:51.411Z,64.95
2017-11-13T12:29:04.838Z,65.04
2017-11-13T12:29:17.750Z,64.36
2017-11-13T12:29:31.151Z,64.65
2017-11-13T12:29:44.631Z,64.36
2017-11-13T12:29:57.519Z,64.49
2017-11-13T12:30:09.870Z,64.69
2017-11-13T12:30:23.367Z,64.29
2017-11-13T12:30:35.778Z,64.29
2017-11-13T12:30:48.763Z,63.81
2017-11-13T12:31:02.274Z,63.62
2017-11-13T12:31:15.682Z,63.52
2017-11-13T12:31:28.638Z,63.75
2017-11-13T12:31:41.575Z,63.16
2017-11-13T12:31:55.034Z,63.35
2017-11-13T12:32:07.917Z,62.96
2017-11-13T12:32:20.842Z,63.26
2017-11-13T12:32:33.806Z,63.19
2017-11-13T12:32:46.709Z,62.8
2017-11-13T12:33:00.206Z,62.8
2017-11-13T12:33:12.598Z,62.8
2017-11-13T12:33:26.076Z,62.7
2017-11-13T12:33:39.554Z,62.99
2017-11-13T12:33:53.054Z,63.32